createdAt,value
2022-12-26T00:01:30.616Z,10.30
2022-12-26T00:04:00.011Z,10.58
2022-12-26T00:06:30.835Z,10.61
2022-12-26T00:08:58.967Z,10.56
2022-12-26T00:11:27.898Z,10.40
2022-12-26T00:13:57.613Z,10.31
2022-12-26T00:16:27.506Z,10.39
2022-12-26T00:18:55.794Z,10.49
2022-12-26T00:21:27.166Z,10.17
2022-12-26T00:23:55.615Z,10.26
2022-12-26T00:26:25.954Z,10.04
2022-12-26T00:28:54.954Z,10.16
2022-12-26T00:31:25.307Z,10.39
2022-12-26T00:33:53.377Z,10.35
2022-12-26T00:36:26.539Z,10.14
2022-12-26T00:38:54.293Z,10.33
2022-12-26T00:41:23.462Z,10.50
2022-12-26T00:43:52.118Z,10.55
2022-12-26T00:46:20.685Z,10.52
2022-12-26T00:48:48.747Z,10.59
2022-12-26T00:51:17.483Z,10.68
2022-12-26T00:53:47.046Z,10.75
2022-12-26T00:56:16.027Z,10.73
2022-12-26T00:58:44.073Z,10.68
2022-12-26T01:01:15.430Z,10.40
2022-12-26T01:03:44.383Z,10.83
2022-12-26T01:06:12.301Z,10.56
2022-12-26T01:08:40.623Z,10.69
2022-12-26T01:11:11.528Z,10.95
2022-12-26T01:13:39.649Z,10.80
2022-12-26T01:16:09.294Z,10.76
2022-12-26T01:18:37.788Z,10.72
2022-12-26T01:21:08.338Z,10.54
2022-12-26T01:23:36.426Z,10.36
2022-12-26T01:26:16.694Z,10.13
2022-12-26T01:28:49.249Z,10.04
2022-12-26T01:31:19.594Z,9.87
2022-12-26T01:33:47.824Z,9.71
2022-12-26T01:36:17.024Z,9.82
2022-12-26T01:38:45.132Z,9.77
2022-12-26T01:41:20.100Z,10.01
2022-12-26T01:43:53.552Z,10.20
2022-12-26T01:46:24.189Z,10.09
2022-12-26T01:48:53.104Z,10.15
2022-12-26T01:51:24.867Z,10.13
2022-12-26T01:54:40.424Z,10.22
2022-12-26T01:56:48.103Z,9.95
2022-12-26T01:59:20.277Z,10.15
2022-12-26T02:01:52.148Z,10.09
2022-12-26T02:04:46.656Z,10.16
2022-12-26T02:07:15.281Z,10.08
2022-12-26T02:09:43.692Z,9.77
2022-12-26T02:12:36.319Z,9.91
2022-12-26T02:15:11.490Z,10.04
2022-12-26T02:17:40.843Z,10.02
2022-12-26T02:20:18.603Z,10.12
2022-12-26T02:23:19.505Z,10.05
2022-12-26T02:26:29.269Z,10.26
2022-12-26T02:29:40.140Z,10.05
2022-12-26T02:32:15.891Z,10.24
2022-12-26T02:34:54.559Z,10.23
2022-12-26T02:37:34.690Z,10.40
2022-12-26T02:40:17.911Z,10.52
2022-12-26T02:42:58.867Z,10.50
2022-12-26T02:45:52.233Z,10.42
2022-12-26T02:48:32.141Z,10.55
2022-12-26T02:51:29.284Z,10.64
2022-12-26T02:54:25.387Z,10.29
2022-12-26T02:57:15.924Z,10.34
2022-12-26T03:00:12.014Z,10.59
2022-12-26T03:03:02.429Z,10.59
2022-12-26T03:05:54.012Z,10.53
2022-12-26T03:08:47.135Z,10.37
2022-12-26T03:11:32.526Z,10.53
2022-12-26T03:14:09.577Z,10.31
2022-12-26T03:16:54.966Z,10.43
2022-12-26T03:19:26.962Z,10.54
2022-12-26T03:21:58.327Z,10.69
2022-12-26T03:24:46.860Z,10.68
2022-12-26T03:27:14.025Z,10.79
2022-12-26T03:29:59.227Z,10.74
2022-12-26T03:32:27.296Z,10.71
2022-12-26T03:34:55.116Z,10.50
2022-12-26T03:37:48.604Z,10.81
2022-12-26T03:40:43.531Z,10.82
2022-12-26T03:43:39.253Z,10.74
2022-12-26T03:46:36.099Z,10.71
2022-12-26T03:49:27.508Z,10.58
2022-12-26T03:52:21.031Z,10.75
2022-12-26T03:55:13.060Z,10.99
2022-12-26T03:58:08.495Z,10.87
2022-12-26T04:00:57.386Z,10.93
2022-12-26T04:03:44.082Z,10.87
2022-12-26T04:06:37.107Z,11.12
2022-12-26T04:09:42.678Z,11.22
2022-12-26T04:12:36.267Z,11.20
2022-12-26T04:15:29.701Z,10.94
2022-12-26T04:18:27.638Z,10.93
2022-12-26T04:21:29.603Z,10.79
2022-12-26T04:24:18.745Z,10.66
2022-12-26T04:27:10.099Z,10.44
2022-12-26T04:29:57.323Z,10.61
2022-12-26T04:32:53.579Z,10.82
2022-12-26T04:35:46.719Z,10.88
2022-12-26T04:38:37.633Z,11.01
2022-12-26T04:41:25.545Z,11.00
2022-12-26T04:44:08.227Z,10.74
2022-12-26T04:46:41.356Z,10.66
2022-12-26T04:49:30.155Z,10.90
2022-12-26T04:52:01.744Z,11.02
2022-12-26T04:54:30.451Z,11.20
2022-12-26T04:56:58.742Z,11.32
2022-12-26T04:59:27.815Z,11.45
2022-12-26T05:02:15.045Z,11.28
2022-12-26T05:05:01.254Z,11.38
2022-12-26T05:07:49.725Z,11.46
2022-12-26T05:10:21.135Z,11.38
2022-12-26T05:12:49.328Z,11.34
2022-12-26T05:15:18.234Z,11.37
2022-12-26T05:18:06.293Z,11.42
2022-12-26T05:20:48.371Z,11.53
2022-12-26T05:23:38.945Z,11.39
2022-12-26T05:26:25.432Z,11.43
2022-12-26T05:28:59.610Z,11.58
2022-12-26T05:31:34.708Z,11.49
2022-12-26T05:34:08.133Z,11.49
2022-12-26T05:36:39.882Z,11.65
2022-12-26T05:39:10.216Z,11.73
2022-12-26T05:41:40.131Z,11.66
2022-12-26T05:44:09.704Z,11.79
2022-12-26T05:46:38.662Z,11.81
2022-12-26T05:49:08.640Z,11.80
2022-12-26T05:51:37.802Z,11.72
2022-12-26T05:54:06.375Z,11.60
2022-12-26T05:56:35.252Z,11.61
2022-12-26T05:59:03.725Z,11.56
2022-12-26T06:01:32.551Z,11.48
2022-12-26T06:04:01.307Z,11.34
2022-12-26T06:06:31.468Z,11.55
2022-12-26T06:08:59.706Z,11.48
2022-12-26T06:11:29.013Z,11.10
2022-12-26T06:13:57.458Z,11.12
2022-12-26T06:16:26.578Z,11.22
2022-12-26T06:18:56.003Z,11.17
2022-12-26T06:21:25.184Z,11.13
2022-12-26T06:23:54.869Z,11.03
2022-12-26T06:26:23.426Z,11.20
2022-12-26T06:28:51.631Z,11.25
2022-12-26T06:31:22.429Z,11.01
2022-12-26T06:33:51.476Z,11.06
2022-12-26T06:36:22.737Z,11.14
2022-12-26T06:38:51.707Z,11.20
2022-12-26T06:41:23.904Z,11.20
2022-12-26T06:43:52.262Z,11.16
2022-12-26T06:46:22.705Z,11.49
2022-12-26T06:48:51.299Z,11.39
2022-12-26T06:51:22.839Z,11.43
2022-12-26T06:53:52.006Z,11.48
2022-12-26T06:56:23.900Z,11.54
2022-12-26T06:58:55.015Z,11.75
2022-12-26T07:01:24.361Z,11.83
2022-12-26T07:03:54.050Z,11.85
2022-12-26T07:06:25.652Z,11.95
2022-12-26T07:08:55.145Z,11.86
2022-12-26T07:11:27.661Z,11.93
2022-12-26T07:13:57.146Z,11.98
2022-12-26T07:16:25.702Z,11.90
2022-12-26T07:18:55.206Z,11.93
2022-12-26T07:21:24.462Z,11.99
2022-12-26T07:23:52.734Z,12.11
2022-12-26T07:26:21.742Z,12.07
2022-12-26T07:28:54.299Z,12.09
2022-12-26T07:31:23.594Z,12.15
2022-12-26T07:33:53.095Z,12.09
2022-12-26T07:36:22.022Z,12.12
2022-12-26T07:38:50.273Z,12.00
2022-12-26T07:41:36.641Z,12.11
2022-12-26T07:44:07.155Z,12.15
2022-12-26T07:46:35.623Z,12.27
2022-12-26T07:49:04.389Z,12.19
2022-12-26T07:51:32.659Z,12.21
2022-12-26T07:54:03.186Z,12.39
2022-12-26T07:56:36.099Z,12.47
2022-12-26T07:59:05.660Z,12.58
2022-12-26T08:01:34.206Z,12.54
2022-12-26T08:04:02.544Z,12.76
2022-12-26T08:06:43.617Z,12.96
2022-12-26T08:09:16.057Z,12.83
2022-12-26T08:11:46.003Z,12.86
2022-12-26T08:14:16.862Z,12.95
2022-12-26T08:16:51.351Z,12.98
2022-12-26T08:19:21.143Z,13.01
2022-12-26T08:21:49.480Z,13.12
2022-12-26T08:24:18.048Z,13.24
2022-12-26T08:26:46.811Z,13.34
2022-12-26T08:29:16.647Z,13.44
2022-12-26T08:31:45.069Z,13.49
2022-12-26T08:34:13.497Z,13.68
2022-12-26T08:36:42.067Z,13.60
2022-12-26T08:39:10.299Z,13.77
2022-12-26T08:41:39.639Z,13.85
2022-12-26T08:46:57.793Z,13.71
2022-12-26T08:49:25.960Z,13.83
2022-12-26T08:51:54.452Z,13.83
2022-12-26T08:54:23.327Z,13.34
2022-12-26T08:56:51.894Z,13.11
2022-12-26T08:59:20.336Z,13.13
2022-12-26T09:01:49.259Z,12.90
2022-12-26T09:04:18.915Z,12.82
2022-12-26T09:06:48.009Z,12.65
2022-12-26T09:09:19.229Z,12.84
2022-12-26T09:11:48.571Z,13.09
2022-12-26T09:14:17.134Z,12.96
2022-12-26T09:16:50.977Z,13.05
2022-12-26T09:19:22.264Z,13.06
2022-12-26T09:22:13.173Z,12.89
2022-12-26T09:24:41.648Z,12.91
2022-12-26T09:27:10.487Z,12.96
2022-12-26T09:29:39.404Z,13.16
2022-12-26T09:32:08.477Z,13.28
2022-12-26T09:34:38.236Z,12.98
2022-12-26T09:37:06.551Z,13.05
2022-12-26T09:39:35.144Z,12.77
2022-12-26T09:42:15.062Z,12.87
2022-12-26T09:44:52.959Z,12.65
2022-12-26T09:47:33.671Z,12.30
2022-12-26T09:50:11.886Z,12.38
2022-12-26T09:52:44.868Z,12.59
2022-12-26T09:55:39.390Z,12.53
2022-12-26T09:58:17.213Z,12.64
2022-12-26T10:00:52.355Z,12.66
2022-12-26T10:03:21.327Z,12.58
2022-12-26T10:06:05.032Z,12.57
2022-12-26T10:08:46.208Z,12.43
2022-12-26T10:11:25.292Z,12.55
2022-12-26T10:14:00.997Z,12.69
2022-12-26T10:16:43.594Z,12.78
2022-12-26T10:19:32.644Z,12.55
2022-12-26T10:22:20.192Z,12.88
2022-12-26T10:24:51.981Z,12.67
2022-12-26T10:27:23.064Z,12.71
2022-12-26T10:29:56.872Z,12.41
2022-12-26T10:32:31.445Z,12.40
2022-12-26T10:35:01.026Z,12.32
2022-12-26T10:37:37.217Z,12.38
2022-12-26T10:40:19.952Z,12.18
2022-12-26T10:42:55.409Z,12.40
2022-12-26T10:45:35.471Z,12.48
2022-12-26T10:48:04.118Z,12.12
2022-12-26T10:50:35.015Z,12.51
2022-12-26T10:53:08.737Z,12.23
2022-12-26T10:55:37.854Z,12.10
2022-12-26T10:58:14.551Z,12.33
2022-12-26T11:00:42.953Z,12.39
2022-12-26T11:03:13.955Z,12.42
2022-12-26T11:08:43.957Z,12.49
2022-12-26T11:11:15.873Z,12.61
2022-12-26T11:13:50.773Z,12.63
2022-12-26T11:16:27.682Z,12.42
2022-12-26T11:18:57.225Z,12.46
2022-12-26T11:21:28.004Z,12.52
2022-12-26T11:24:19.628Z,12.52
2022-12-26T11:26:49.010Z,12.77
2022-12-26T11:29:19.465Z,12.84
2022-12-26T11:31:54.939Z,12.82
2022-12-26T11:34:32.682Z,12.96
2022-12-26T11:37:01.330Z,12.85
2022-12-26T11:39:37.133Z,12.83
2022-12-26T11:42:12.561Z,12.98
2022-12-26T11:44:45.518Z,13.01
2022-12-26T11:47:16.113Z,12.91
2022-12-26T11:49:53.013Z,12.65
2022-12-26T11:52:38.048Z,12.67
2022-12-26T11:55:27.327Z,12.76
2022-12-26T11:58:02.021Z,12.71
2022-12-26T12:00:31.162Z,12.37
2022-12-26T12:03:01.235Z,12.65
2022-12-26T12:05:53.603Z,12.44
2022-12-26T12:08:33.745Z,12.68
2022-12-26T12:11:16.380Z,12.49
2022-12-26T12:14:03.155Z,12.56
2022-12-26T12:16:46.499Z,12.62
2022-12-26T12:19:26.714Z,12.73
2022-12-26T12:22:07.812Z,12.92
2022-12-26T12:24:52.992Z,12.81
2022-12-26T12:27:31.135Z,12.81
2022-12-26T12:30:19.292Z,12.61
2022-12-26T12:33:11.219Z,12.76
2022-12-26T12:35:54.137Z,12.80
2022-12-26T12:38:33.632Z,12.83
2022-12-26T12:41:20.451Z,12.69
2022-12-26T12:43:58.394Z,12.94
2022-12-26T12:46:34.919Z,12.81
2022-12-26T12:49:33.962Z,12.80
2022-12-26T12:52:14.828Z,12.85
2022-12-26T12:55:11.764Z,12.75
2022-12-26T12:57:49.314Z,12.61
2022-12-26T13:00:21.925Z,12.55
2022-12-26T13:02:57.189Z,12.73
2022-12-26T13:05:34.671Z,12.75
2022-12-26T13:08:09.068Z,12.95
2022-12-26T13:10:47.051Z,12.91
2022-12-26T13:13:23.636Z,13.09
2022-12-26T13:15:57.126Z,13.10
2022-12-26T13:18:29.744Z,13.00
2022-12-26T13:21:02.465Z,12.82
2022-12-26T13:23:59.494Z,12.81
2022-12-26T13:26:32.053Z,12.72
2022-12-26T13:29:04.337Z,12.59
2022-12-26T13:31:39.309Z,12.59
2022-12-26T13:34:11.510Z,12.43
2022-12-26T13:36:43.224Z,12.57
2022-12-26T13:42:38.643Z,12.52
2022-12-26T13:45:58.671Z,12.38
2022-12-26T13:49:06.596Z,12.07
2022-12-26T13:51:47.937Z,12.14
2022-12-26T13:54:18.191Z,12.08
2022-12-26T13:57:17.902Z,11.99
2022-12-26T14:00:00.345Z,12.15
2022-12-26T14:03:19.601Z,12.20
2022-12-26T14:06:10.394Z,12.20
2022-12-26T14:08:52.933Z,12.00
2022-12-26T14:11:36.405Z,12.02
2022-12-26T14:14:19.903Z,12.00
2022-12-26T14:16:58.031Z,12.02
2022-12-26T14:19:40.084Z,12.10
2022-12-26T14:22:17.243Z,12.02
2022-12-26T14:25:06.244Z,12.19
2022-12-26T14:27:41.673Z,11.99
2022-12-26T14:30:30.521Z,11.76
2022-12-26T14:33:29.014Z,11.94
2022-12-26T14:36:13.989Z,11.55
2022-12-26T14:38:49.865Z,11.84
2022-12-26T14:41:33.775Z,11.70
2022-12-26T14:44:16.627Z,11.72
2022-12-26T14:47:02.536Z,11.71
2022-12-26T14:49:44.366Z,11.72
2022-12-26T14:52:49.942Z,11.63
2022-12-26T14:55:50.376Z,11.54
2022-12-26T14:58:31.384Z,11.66
2022-12-26T15:01:38.559Z,11.71
2022-12-26T15:04:19.977Z,11.44
2022-12-26T15:07:06.785Z,11.51
2022-12-26T15:10:01.228Z,11.71
2022-12-26T15:13:15.895Z,11.83
2022-12-26T15:16:12.535Z,11.73
2022-12-26T15:19:11.285Z,11.79
2022-12-26T15:22:17.247Z,11.65
2022-12-26T15:25:24.390Z,11.66
2022-12-26T15:28:43.927Z,11.77
2022-12-26T15:31:29.020Z,11.58
2022-12-26T15:34:07.020Z,11.59
2022-12-26T15:36:45.720Z,11.58
2022-12-26T15:39:26.066Z,11.63
2022-12-26T15:42:06.191Z,11.58
2022-12-26T15:44:45.823Z,11.54
2022-12-26T15:47:19.993Z,11.61
2022-12-26T15:50:04.646Z,11.51
2022-12-26T15:52:44.750Z,11.57
2022-12-26T15:55:37.767Z,11.70
2022-12-26T15:58:16.395Z,11.74
2022-12-26T16:00:52.743Z,11.52
2022-12-26T16:03:32.349Z,11.74
2022-12-26T16:06:23.600Z,11.52
2022-12-26T16:09:23.829Z,11.74
2022-12-26T16:11:56.792Z,11.38
2022-12-26T16:14:31.586Z,11.53
2022-12-26T16:17:20.478Z,11.45
2022-12-26T16:19:51.121Z,11.48
2022-12-26T16:22:44.437Z,11.38
2022-12-26T16:25:16.693Z,11.51
2022-12-26T16:27:47.168Z,11.45
2022-12-26T16:30:20.013Z,11.47
2022-12-26T16:32:51.394Z,11.49
2022-12-26T16:35:24.317Z,11.50
2022-12-26T16:37:54.517Z,11.43
2022-12-26T16:40:26.929Z,11.47
2022-12-26T16:43:01.428Z,11.52
2022-12-26T16:45:33.284Z,11.56
2022-12-26T16:48:06.540Z,11.41
2022-12-26T16:50:38.039Z,11.42
2022-12-26T16:53:17.516Z,11.46
2022-12-26T16:55:48.192Z,11.49
2022-12-26T16:58:22.193Z,11.49
2022-12-26T17:01:00.470Z,11.43
2022-12-26T17:03:36.982Z,11.57
2022-12-26T17:06:16.276Z,11.59
2022-12-26T17:08:48.954Z,11.60
2022-12-26T17:11:18.412Z,11.60
2022-12-26T17:13:53.936Z,11.62
2022-12-26T17:16:25.903Z,11.57
2022-12-26T17:18:56.919Z,11.46
2022-12-26T17:21:30.441Z,11.34
2022-12-26T17:24:25.214Z,11.57
2022-12-26T17:27:17.115Z,11.43
2022-12-26T17:29:57.008Z,11.40
2022-12-26T17:32:37.040Z,11.38
2022-12-26T17:35:12.469Z,11.41
2022-12-26T17:37:43.525Z,11.58
2022-12-26T17:40:24.397Z,11.57
2022-12-26T17:42:55.925Z,11.60
2022-12-26T17:45:26.820Z,11.59
2022-12-26T17:47:56.504Z,11.67
2022-12-26T17:50:32.140Z,11.53
2022-12-26T17:53:05.983Z,11.47
2022-12-26T17:55:36.025Z,11.51
2022-12-26T17:58:04.646Z,11.52
2022-12-26T18:00:34.019Z,11.63
2022-12-26T18:03:02.575Z,11.60
2022-12-26T18:05:33.062Z,11.57
2022-12-26T18:08:01.613Z,11.50
2022-12-26T18:10:33.079Z,11.60
2022-12-26T18:13:01.784Z,11.63
2022-12-26T18:15:32.093Z,11.34
2022-12-26T18:18:00.388Z,11.28
2022-12-26T18:20:30.671Z,11.40
2022-12-26T18:23:00.379Z,11.61
2022-12-26T18:25:29.419Z,11.46
2022-12-26T18:27:57.611Z,11.28
2022-12-26T18:30:27.143Z,11.41
2022-12-26T18:32:55.930Z,11.48
2022-12-26T18:35:25.107Z,11.51
2022-12-26T18:37:57.713Z,11.47
2022-12-26T18:40:32.685Z,11.71
2022-12-26T18:43:05.562Z,11.55
2022-12-26T18:45:35.393Z,11.37
2022-12-26T18:48:04.153Z,11.35
2022-12-26T18:50:34.591Z,11.10
2022-12-26T18:53:03.463Z,11.06
2022-12-26T18:55:33.897Z,10.60
2022-12-26T18:58:02.168Z,10.02
2022-12-26T19:00:31.394Z,9.83
2022-12-26T19:03:00.203Z,9.71
2022-12-26T19:05:31.686Z,9.72
2022-12-26T19:08:01.092Z,9.70
2022-12-26T19:10:31.734Z,9.69
2022-12-26T19:13:14.076Z,9.45
2022-12-26T19:15:47.206Z,9.61
2022-12-26T19:18:15.556Z,9.61
2022-12-26T19:20:46.469Z,9.61
2022-12-26T19:23:14.596Z,9.49
2022-12-26T19:25:43.225Z,9.42
2022-12-26T19:28:12.920Z,9.43
2022-12-26T19:30:41.479Z,9.45
2022-12-26T19:33:09.820Z,9.39
2022-12-26T19:35:38.703Z,9.45
2022-12-26T19:38:06.840Z,9.42
2022-12-26T19:40:35.211Z,9.45
2022-12-26T19:43:03.600Z,9.48
2022-12-26T19:45:33.727Z,9.65
2022-12-26T19:48:01.914Z,9.55
2022-12-26T19:50:30.682Z,9.43
2022-12-26T19:52:58.821Z,9.52
2022-12-26T19:55:27.557Z,9.43
2022-12-26T19:57:55.925Z,9.53
2022-12-26T20:00:24.556Z,9.41
2022-12-26T20:02:54.361Z,9.37
2022-12-26T20:05:22.912Z,9.29
2022-12-26T20:07:51.128Z,9.49
2022-12-26T20:10:19.950Z,9.36
2022-12-26T20:12:48.407Z,9.41
2022-12-26T20:15:17.045Z,9.53
2022-12-26T20:17:45.283Z,9.04
2022-12-26T20:20:15.226Z,9.34
2022-12-26T20:22:46.904Z,9.29
2022-12-26T20:25:18.407Z,9.48
2022-12-26T20:27:46.892Z,9.56
2022-12-26T20:30:15.609Z,9.59
2022-12-26T20:32:46.821Z,9.44
2022-12-26T20:35:17.037Z,9.39
2022-12-26T20:37:45.359Z,9.40
2022-12-26T20:40:14.386Z,9.32
2022-12-26T20:42:42.491Z,9.23
2022-12-26T20:45:11.412Z,9.49
2022-12-26T20:47:39.769Z,9.54
2022-12-26T20:50:09.179Z,9.54
2022-12-26T20:52:38.903Z,9.65
2022-12-26T20:55:08.406Z,9.66
2022-12-26T20:57:36.997Z,9.63
2022-12-26T21:00:06.309Z,9.67
2022-12-26T21:02:34.706Z,9.59
2022-12-26T21:05:03.226Z,9.52
2022-12-26T21:07:33.230Z,9.53
2022-12-26T21:10:03.294Z,9.52
2022-12-26T21:12:31.719Z,9.67
2022-12-26T21:14:59.918Z,9.54
2022-12-26T21:17:28.186Z,9.58
2022-12-26T21:19:56.446Z,9.68
2022-12-26T21:22:24.851Z,9.42
2022-12-26T21:24:53.640Z,9.56
2022-12-26T21:27:23.342Z,9.54
2022-12-26T21:29:52.260Z,9.52
2022-12-26T21:32:20.599Z,9.19
2022-12-26T21:34:49.129Z,9.56
2022-12-26T21:37:34.721Z,9.54
2022-12-26T21:40:03.082Z,9.57
2022-12-26T21:42:32.916Z,9.51
2022-12-26T21:45:01.214Z,9.53
2022-12-26T21:47:29.364Z,9.52
2022-12-26T21:49:57.874Z,9.53
2022-12-26T21:52:26.061Z,9.39
2022-12-26T21:55:11.499Z,9.55
2022-12-26T21:57:41.285Z,9.56
2022-12-26T22:00:14.461Z,9.53
2022-12-26T22:03:00.205Z,9.41
2022-12-26T22:05:32.949Z,9.41
2022-12-26T22:08:03.382Z,9.31
2022-12-26T22:10:51.570Z,9.58
2022-12-26T22:13:22.742Z,9.36
2022-12-26T22:16:07.419Z,9.46
2022-12-26T22:18:38.449Z,9.22
2022-12-26T22:21:10.483Z,9.42
2022-12-26T22:23:39.619Z,9.29
2022-12-26T22:26:09.333Z,9.22
2022-12-26T22:28:39.926Z,9.18
2022-12-26T22:31:09.285Z,8.98
2022-12-26T22:33:37.608Z,8.82
2022-12-26T22:36:08.548Z,8.70
2022-12-26T22:38:37.921Z,8.58
2022-12-26T22:41:08.040Z,8.55
2022-12-26T22:43:38.646Z,8.17
2022-12-26T22:46:07.796Z,8.13
2022-12-26T22:48:36.238Z,8.15
2022-12-26T22:51:05.079Z,8.14
2022-12-26T22:53:33.517Z,8.05
2022-12-26T22:56:04.177Z,8.06
2022-12-26T22:58:33.635Z,7.99
2022-12-26T23:01:03.348Z,8.04
2022-12-26T23:03:31.436Z,8.00
2022-12-26T23:06:00.480Z,8.00
2022-12-26T23:08:29.970Z,7.87
2022-12-26T23:11:00.315Z,7.65
2022-12-26T23:13:29.107Z,7.57
2022-12-26T23:16:03.593Z,7.32
2022-12-26T23:18:57.600Z,7.27
2022-12-26T23:21:43.670Z,7.13
2022-12-26T23:24:17.681Z,6.94
2022-12-26T23:26:48.319Z,6.92
2022-12-26T23:29:35.790Z,6.94
2022-12-26T23:32:04.740Z,6.86
2022-12-26T23:34:34.472Z,6.84
2022-12-26T23:37:03.304Z,6.76
2022-12-26T23:39:31.523Z,6.70
2022-12-26T23:41:59.807Z,6.65
2022-12-26T23:44:27.961Z,6.53
2022-12-26T23:46:56.623Z,6.45
2022-12-26T23:49:24.948Z,6.51
2022-12-26T23:51:54.649Z,6.34
2022-12-26T23:54:22.737Z,6.40
2022-12-26T23:56:51.405Z,6.28
2022-12-26T23:59:20.247Z,6.26
